createdAt,value
2022-11-02T00:00:53.405Z,96096.8
2022-11-02T00:01:56.283Z,96097.5
2022-11-02T00:02:59.089Z,96095.9
2022-11-02T00:04:01.768Z,96100.3
2022-11-02T00:05:04.235Z,96097.3
2022-11-02T00:06:06.720Z,96098.1
2022-11-02T00:07:08.927Z,96100.5
2022-11-02T00:08:11.126Z,96098.8
2022-11-02T00:09:13.591Z,96095.6
2022-11-02T00:10:16.073Z,96099
2022-11-02T00:11:18.269Z,96094.6
2022-11-02T00:12:20.548Z,96093
2022-11-02T00:13:23.018Z,96094.8
2022-11-02T00:14:25.499Z,96092.2
2022-11-02T00:15:27.971Z,96094.1
2022-11-02T00:16:30.169Z,96094.4
2022-11-02T00:17:32.630Z,96095.9
2022-11-02T00:18:35.141Z,96095.2
2022-11-02T00:19:37.334Z,96099.5
2022-11-02T00:20:39.814Z,96099.6
2022-11-02T00:21:42.272Z,96099.2
2022-11-02T00:22:44.212Z,96104.6
2022-11-02T00:23:46.393Z,96101.2
2022-11-02T00:24:48.866Z,96099.6
2022-11-02T00:25:51.056Z,96099.4
2022-11-02T00:26:52.957Z,96100.9
2022-11-02T00:27:55.505Z,96098.9
2022-11-02T00:28:58.231Z,96100.6
2022-11-02T00:30:00.697Z,96104.6
2022-11-02T00:31:02.615Z,96098.2
2022-11-02T00:32:04.806Z,96100.1
2022-11-02T00:33:07.963Z,96100.2
2022-11-02T00:34:10.164Z,96102.8
2022-11-02T00:35:12.098Z,96100.2
2022-11-02T00:36:14.294Z,96099.8
2022-11-02T00:37:16.207Z,96102.5
2022-11-02T00:38:18.679Z,96101.8
2022-11-02T00:39:20.613Z,96103.2
2022-11-02T00:40:22.544Z,96111.6
2022-11-02T00:41:24.735Z,96114.7
2022-11-02T00:42:26.931Z,96109
2022-11-02T00:43:29.480Z,96112.2
2022-11-02T00:44:31.415Z,96107.2
2022-11-02T00:45:33.609Z,96103.5
2022-11-02T00:46:35.238Z,96113.3
2022-11-02T00:47:37.438Z,96117.3
2022-11-02T00:48:39.627Z,96118.4
2022-11-02T00:49:41.811Z,96111.5
2022-11-02T00:50:44.488Z,96113.4
2022-11-02T00:51:46.543Z,96106.4
2022-11-02T00:52:49.011Z,96110.9
2022-11-02T00:53:51.212Z,96106.2
2022-11-02T00:54:53.676Z,96104.1
2022-11-02T00:55:55.583Z,96110.4
2022-11-02T00:56:57.982Z,96110.8
2022-11-02T00:58:00.496Z,96111.3
2022-11-02T00:59:03.160Z,96114.3
2022-11-02T01:00:05.390Z,96114.7
2022-11-02T01:01:08.617Z,96113.9
2022-11-02T01:02:11.926Z,96116.1
2022-11-02T01:03:14.462Z,96115.1
2022-11-02T01:04:16.366Z,96112.8
2022-11-02T01:05:18.842Z,96113.5
2022-11-02T01:06:21.311Z,96116.3
2022-11-02T01:07:23.791Z,96116.4
2022-11-02T01:08:26.258Z,96114
2022-11-02T01:09:28.733Z,96120.7
2022-11-02T01:10:30.943Z,96118.6
2022-11-02T01:11:33.417Z,96121.4
2022-11-02T01:12:35.615Z,96124.8
2022-11-02T01:13:38.087Z,96124.4
2022-11-02T01:14:40.633Z,96122.6
2022-11-02T01:15:42.851Z,96129
2022-11-02T01:17:48.612Z,96128
2022-11-02T01:18:50.527Z,96126.3
2022-11-02T01:19:53.014Z,96127.6
2022-11-02T01:20:55.490Z,96126.1
2022-11-02T01:21:57.700Z,96127.4
2022-11-02T01:23:00.169Z,96126.6
2022-11-02T01:24:02.374Z,96131
2022-11-02T01:25:04.586Z,96130.6
2022-11-02T01:26:06.784Z,96131.1
2022-11-02T01:27:09.242Z,96128.8
2022-11-02T01:28:11.729Z,96130.1
2022-11-02T01:29:13.662Z,96132.6
2022-11-02T01:30:16.196Z,96131.5
2022-11-02T01:31:18.679Z,96129.3
2022-11-02T01:32:21.149Z,96126.8
2022-11-02T01:33:23.621Z,96126.6
2022-11-02T01:34:26.098Z,96131.2
2022-11-02T01:35:28.285Z,96126.9
2022-11-02T01:36:30.481Z,96129.5
2022-11-02T01:37:32.947Z,96131.2
2022-11-02T01:38:35.123Z,96130.8
2022-11-02T01:39:36.470Z,96130.5
2022-11-02T01:40:38.941Z,96129.8
2022-11-02T01:41:41.405Z,96134.2
2022-11-02T01:42:43.600Z,96130.2
2022-11-02T01:43:45.521Z,96131.1
2022-11-02T01:44:48.025Z,96133.8
2022-11-02T01:45:50.261Z,96133.3
2022-11-02T01:46:52.750Z,96132.5
2022-11-02T01:47:55.213Z,96131.6
2022-11-02T01:48:58.018Z,96130.3
2022-11-02T01:50:01.008Z,96132.6
2022-11-02T01:51:03.181Z,96134.6
2022-11-02T01:52:05.665Z,96130.7
2022-11-02T01:53:07.846Z,96132.5
2022-11-02T01:54:10.049Z,96128.1
2022-11-02T01:55:12.255Z,96131.6
2022-11-02T01:56:14.798Z,96132.9
2022-11-02T01:57:17.358Z,96131
2022-11-02T01:58:19.542Z,96132.1
2022-11-02T01:59:22.008Z,96132.3
2022-11-02T02:00:24.477Z,96128.4
2022-11-02T02:01:27.605Z,96129.8
2022-11-02T02:02:31.155Z,96128.8
2022-11-02T02:03:33.397Z,96125
2022-11-02T02:04:35.597Z,96128.3
2022-11-02T02:05:38.058Z,96126.4
2022-11-02T02:06:40.524Z,96125.9
2022-11-02T02:07:43.007Z,96120.2
2022-11-02T02:08:44.938Z,96119
2022-11-02T02:10:52.133Z,96120.4
2022-11-02T02:11:54.332Z,96127.8
2022-11-02T02:12:56.521Z,96128
2022-11-02T02:13:58.990Z,96128.5
2022-11-02T02:15:01.458Z,96127.9
2022-11-02T02:16:03.381Z,96128.5
2022-11-02T02:17:05.953Z,96124.6
2022-11-02T02:18:09.055Z,96134.9
2022-11-02T02:19:11.235Z,96134.5
2022-11-02T02:20:13.732Z,96143.4
2022-11-02T02:21:15.938Z,96140.9
2022-11-02T02:22:18.419Z,96139.3
2022-11-02T02:23:20.619Z,96141.3
2022-11-02T02:24:23.095Z,96140.4
2022-11-02T02:25:25.282Z,96146.1
2022-11-02T02:26:27.479Z,96143.6
2022-11-02T02:27:29.649Z,96140.9
2022-11-02T02:28:31.848Z,96142.5
2022-11-02T02:29:34.014Z,96143.5
2022-11-02T02:30:36.487Z,96142.9
2022-11-02T02:31:37.840Z,96145.4
2022-11-02T02:32:40.396Z,96146.7
2022-11-02T02:33:42.870Z,96149
2022-11-02T02:34:45.072Z,96146.7
2022-11-02T02:35:47.268Z,96146.8
2022-11-02T02:36:49.196Z,96147.1
2022-11-02T02:37:50.547Z,96148.7
2022-11-02T02:38:53.024Z,96149.1
2022-11-02T02:39:54.649Z,96148.5
2022-11-02T02:40:56.849Z,96142.7
2022-11-02T02:41:59.322Z,96145.7
2022-11-02T02:43:01.244Z,96146.3
2022-11-02T02:44:03.711Z,96146.8
2022-11-02T02:45:05.906Z,96146.6
2022-11-02T02:46:08.371Z,96147.1
2022-11-02T02:47:10.550Z,96144
2022-11-02T02:48:13.111Z,96148.6
2022-11-02T02:49:15.328Z,96150.2
2022-11-02T02:50:17.812Z,96149.7
2022-11-02T02:51:20.008Z,96150.2
2022-11-02T02:52:22.474Z,96150.5
2022-11-02T02:53:24.676Z,96148.8
2022-11-02T02:54:26.845Z,96149.5
2022-11-02T02:55:29.044Z,96150.2
2022-11-02T02:56:31.235Z,96147.4
2022-11-02T02:57:33.428Z,96146.2
2022-11-02T02:58:35.042Z,96147.8
2022-11-02T02:59:37.244Z,96148.4
2022-11-02T03:00:39.708Z,96148.9
2022-11-02T03:01:42.482Z,96149.7
2022-11-02T03:02:45.004Z,96147.2
2022-11-02T03:03:47.592Z,96151
2022-11-02T03:04:49.799Z,96148.9
2022-11-02T03:05:51.691Z,96154.8
2022-11-02T03:06:54.168Z,96154
2022-11-02T03:07:56.641Z,96155.2
2022-11-02T03:08:58.843Z,96158.6
2022-11-02T03:10:01.306Z,96160.4
2022-11-02T03:11:03.504Z,96157.1
2022-11-02T03:12:05.719Z,96159.6
2022-11-02T03:13:07.640Z,96159.8
2022-11-02T03:14:10.107Z,96157.1
2022-11-02T03:15:12.597Z,96155.6
2022-11-02T03:16:15.064Z,96155.3
2022-11-02T03:17:17.286Z,96163.9
2022-11-02T03:18:19.763Z,96163.5
2022-11-02T03:19:21.768Z,96159.9
2022-11-02T03:20:23.968Z,96162.4
2022-11-02T03:21:26.152Z,96160.7
2022-11-02T03:22:28.354Z,96158.2
2022-11-02T03:23:30.559Z,96157.1
2022-11-02T03:24:33.027Z,96163.2
2022-11-02T03:25:35.232Z,96164.7
2022-11-02T03:26:37.696Z,96165.5
2022-11-02T03:27:39.879Z,96163.5
2022-11-02T03:28:42.068Z,96169.9
2022-11-02T03:29:44.017Z,96171.5
2022-11-02T03:30:46.499Z,96167.9
2022-11-02T03:31:48.436Z,96175.6
2022-11-02T03:32:50.397Z,96173.9
2022-11-02T03:33:52.615Z,96170.1
2022-11-02T03:34:55.271Z,96176
2022-11-02T03:35:57.768Z,96178.4
2022-11-02T03:37:00.344Z,96174.1
2022-11-02T03:38:04.356Z,96174.4
2022-11-02T03:39:07.158Z,96175
2022-11-02T03:40:09.371Z,96172.5
2022-11-02T03:41:12.197Z,96172.7
2022-11-02T03:42:14.669Z,96173.5
2022-11-02T03:43:16.870Z,96171.7
2022-11-02T03:44:19.064Z,96172.7
2022-11-02T03:45:21.249Z,96172.8
2022-11-02T03:46:23.447Z,96171.9
2022-11-02T03:47:25.378Z,96175.3
2022-11-02T03:48:27.575Z,96172.6
2022-11-02T03:49:29.769Z,96176.1
2022-11-02T03:50:32.326Z,96175.5
2022-11-02T03:51:34.545Z,96180
2022-11-02T03:52:36.869Z,96181.2
2022-11-02T03:53:38.517Z,96184.4
2022-11-02T03:54:40.770Z,96185.8
2022-11-02T03:55:42.731Z,96181.2
2022-11-02T03:56:44.943Z,96184.8
2022-11-02T03:57:47.173Z,96188.2
2022-11-02T03:58:49.641Z,96183.1
2022-11-02T03:59:51.856Z,96189.5
2022-11-02T04:00:54.320Z,96186.3
2022-11-02T04:01:57.007Z,96183.5
2022-11-02T04:02:59.363Z,96185.6
2022-11-02T04:04:01.602Z,96184.9
2022-11-02T04:05:04.075Z,96185
2022-11-02T04:06:07.047Z,96185.8
2022-11-02T04:07:09.697Z,96183.9
2022-11-02T04:08:11.399Z,96190.4
2022-11-02T04:09:13.617Z,96191.5
2022-11-02T04:10:16.112Z,96193.7
2022-11-02T04:11:17.762Z,96191.5
2022-11-02T04:12:19.995Z,96191
2022-11-02T04:13:22.490Z,96189.3
2022-11-02T04:14:24.963Z,96185.6
2022-11-02T04:15:27.658Z,96191
2022-11-02T04:16:30.220Z,96190.1
2022-11-02T04:17:32.373Z,96191.9
2022-11-02T04:18:34.914Z,96193.5
2022-11-02T04:19:37.471Z,96195.4
2022-11-02T04:20:39.676Z,96190.1
2022-11-02T04:21:42.313Z,96191.4
2022-11-02T04:22:44.550Z,96185
2022-11-02T04:23:46.764Z,96189.6
2022-11-02T04:24:49.244Z,96191.4
2022-11-02T04:25:51.435Z,96192
2022-11-02T04:26:53.912Z,96191.8
2022-11-02T04:27:56.116Z,96193.3
2022-11-02T04:28:58.296Z,96191.7
2022-11-02T04:30:00.226Z,96190.5
2022-11-02T04:31:02.433Z,96187.9
2022-11-02T04:32:04.908Z,96184.8
2022-11-02T04:33:07.104Z,96185.6
2022-11-02T04:34:09.295Z,96184.7
2022-11-02T04:35:11.761Z,96184.6
2022-11-02T04:36:13.955Z,96182.9
2022-11-02T04:37:16.510Z,96183.7
2022-11-02T04:38:18.723Z,96180.8
2022-11-02T04:39:21.198Z,96179.9
2022-11-02T04:40:23.668Z,96181.2
2022-11-02T04:41:26.141Z,96176.8
2022-11-02T04:42:28.053Z,96175.3
2022-11-02T04:43:30.245Z,96177.9
2022-11-02T04:44:32.437Z,96178.5
2022-11-02T04:45:34.631Z,96175.7
2022-11-02T04:46:37.092Z,96182.8
2022-11-02T04:47:39.652Z,96178.6
2022-11-02T04:48:42.159Z,96176.8
2022-11-02T04:49:44.698Z,96173.9
2022-11-02T04:50:47.256Z,96172.3
2022-11-02T04:51:51.231Z,96173.7
2022-11-02T04:52:53.869Z,96172.3
2022-11-02T04:53:55.792Z,96173.9
2022-11-02T04:54:57.992Z,96172.9
2022-11-02T04:56:00.457Z,96176.3
2022-11-02T04:57:02.116Z,96176.7
2022-11-02T04:58:05.816Z,96177.8
2022-11-02T04:59:08.949Z,96174.7
2022-11-02T05:00:11.446Z,96182.4
2022-11-02T05:01:13.531Z,96190.5
2022-11-02T05:02:16.682Z,96186.4
2022-11-02T05:03:19.149Z,96183.5
2022-11-02T05:04:21.381Z,96186.8
2022-11-02T05:05:23.867Z,96185.6
2022-11-02T05:06:26.065Z,96179.6
2022-11-02T05:07:28.544Z,96182.6
2022-11-02T05:08:31.090Z,96177
2022-11-02T05:09:33.588Z,96180.6
2022-11-02T05:10:36.059Z,96183.7
2022-11-02T05:11:38.268Z,96181.9
2022-11-02T05:12:40.748Z,96181.5
2022-11-02T05:13:42.959Z,96179.3
2022-11-02T05:14:45.442Z,96183.7
2022-11-02T05:15:47.652Z,96186.5
2022-11-02T05:16:50.136Z,96181.9
2022-11-02T05:17:52.809Z,96186.3
2022-11-02T05:18:55.090Z,96187.9
2022-11-02T05:19:57.569Z,96184.2
2022-11-02T05:20:59.483Z,96181.7
2022-11-02T05:22:01.955Z,96184.7
2022-11-02T05:23:05.843Z,96183.7
2022-11-02T05:24:09.192Z,96177.1
2022-11-02T05:25:11.399Z,96173.1
2022-11-02T05:26:13.895Z,96178.6
2022-11-02T05:27:16.092Z,96177
2022-11-02T05:28:18.316Z,96181.9
2022-11-02T05:29:20.806Z,96181.3
2022-11-02T05:30:23.312Z,96181.1
2022-11-02T05:31:25.544Z,96181.5
2022-11-02T05:32:27.745Z,96180.1
2022-11-02T05:33:32.346Z,96181.4
2022-11-02T05:34:34.847Z,96178.6
2022-11-02T05:35:36.501Z,96181.6
2022-11-02T05:36:38.989Z,96176.4
2022-11-02T05:37:41.198Z,96175.7
2022-11-02T05:38:43.677Z,96176.6
2022-11-02T05:40:51.363Z,96176.3
2022-11-02T05:41:53.868Z,96178.1
2022-11-02T05:42:56.333Z,96168.6
2022-11-02T05:43:58.532Z,96174.7
2022-11-02T05:45:01.011Z,96170.6
2022-11-02T05:46:03.528Z,96178.1
2022-11-02T05:47:05.721Z,96176.8
2022-11-02T05:48:07.929Z,96182.7
2022-11-02T05:49:10.122Z,96179.7
2022-11-02T05:50:12.607Z,96176.3
2022-11-02T05:51:14.801Z,96180.6
2022-11-02T05:52:17.292Z,96183.6
2022-11-02T05:53:19.758Z,96186.4
2022-11-02T05:54:22.239Z,96182.5
2022-11-02T05:55:24.449Z,96187
2022-11-02T05:56:27.062Z,96185
2022-11-02T05:57:29.543Z,96184.4
2022-11-02T05:58:32.031Z,96190.4
2022-11-02T05:59:34.223Z,96191.2
2022-11-02T06:00:36.699Z,96190.7
2022-11-02T06:01:39.301Z,96191.7
2022-11-02T06:02:41.918Z,96196.7
2022-11-02T06:04:52.578Z,96201.6
2022-11-02T06:05:55.107Z,96207.2
2022-11-02T06:06:57.583Z,96204.9
2022-11-02T06:08:00.081Z,96208.8
2022-11-02T06:10:07.001Z,96210.9
2022-11-02T06:11:09.198Z,96216.5
2022-11-02T06:12:11.753Z,96215
2022-11-02T06:13:14.248Z,96218.4
2022-11-02T06:14:16.458Z,96211.6
2022-11-02T06:15:18.381Z,96213.9
2022-11-02T06:17:25.295Z,96213.7
2022-11-02T06:18:26.938Z,96215.3
2022-11-02T06:19:29.496Z,96211.2
2022-11-02T06:20:31.705Z,96217.6
2022-11-02T06:21:34.274Z,96213.7
2022-11-02T06:22:36.747Z,96221.3
2022-11-02T06:23:39.240Z,96221.2
2022-11-02T06:24:41.720Z,96227.5
2022-11-02T06:25:44.202Z,96223.4
2022-11-02T06:26:46.155Z,96222.8
2022-11-02T06:27:48.686Z,96225.2
2022-11-02T06:28:51.183Z,96227.5
2022-11-02T06:29:53.381Z,96232.3
2022-11-02T06:30:55.583Z,96232.3
2022-11-02T06:31:58.062Z,96233.6
2022-11-02T06:34:05.563Z,96232.7
2022-11-02T06:35:07.771Z,96234
2022-11-02T06:36:09.979Z,96238.1
2022-11-02T06:37:12.217Z,96238.3
2022-11-02T06:38:14.447Z,96242.6
2022-11-02T06:39:16.368Z,96242.4
2022-11-02T06:41:23.574Z,96246.5
2022-11-02T06:42:25.514Z,96243
2022-11-02T06:43:28.053Z,96244.3
2022-11-02T06:44:30.282Z,96241.7
2022-11-02T06:45:31.909Z,96243.6
2022-11-02T06:46:34.503Z,96242.3
2022-11-02T06:47:36.722Z,96247.2
2022-11-02T06:48:39.219Z,96253.9
2022-11-02T06:49:41.122Z,96253.2
2022-11-02T06:50:43.406Z,96253.2
2022-11-02T06:51:45.357Z,96253.4
2022-11-02T06:52:47.069Z,96248.3
2022-11-02T06:53:49.541Z,96254.1
2022-11-02T06:54:52.049Z,96250.7
2022-11-02T06:55:53.950Z,96254.4
2022-11-02T06:56:56.161Z,96252
2022-11-02T06:57:58.680Z,96251.7
2022-11-02T06:59:01.018Z,96255.1
2022-11-02T07:00:03.854Z,96255.1
2022-11-02T07:01:06.972Z,96251.4
2022-11-02T07:02:10.451Z,96252.9
2022-11-02T07:03:13.043Z,96255.8
2022-11-02T07:04:14.986Z,96261.5
2022-11-02T07:05:17.481Z,96263.2
2022-11-02T07:06:19.994Z,96263.1
2022-11-02T07:07:22.483Z,96261.3
2022-11-02T07:08:24.696Z,96258
2022-11-02T07:09:27.180Z,96259.9
2022-11-02T07:10:29.872Z,96257.7
2022-11-02T07:11:31.807Z,96255.6
2022-11-02T07:12:33.712Z,96258.8
2022-11-02T07:13:36.252Z,96262.3
2022-11-02T07:14:38.545Z,96263.4
2022-11-02T07:15:41.109Z,96264.5
2022-11-02T07:16:43.314Z,96265.5
2022-11-02T07:17:45.535Z,96266.2
2022-11-02T07:18:47.476Z,96265.4
2022-11-02T07:19:49.967Z,96266.6
2022-11-02T07:20:51.348Z,96264.8
2022-11-02T07:21:53.835Z,96264.5
2022-11-02T07:22:56.041Z,96261
2022-11-02T07:23:58.323Z,96262.4
2022-11-02T07:25:00.804Z,96262.2
2022-11-02T07:26:03.034Z,96261.2
2022-11-02T07:27:05.224Z,96265
2022-11-02T07:28:07.167Z,96265.2
2022-11-02T07:29:09.676Z,96266
2022-11-02T07:30:12.257Z,96269.3
2022-11-02T07:31:14.756Z,96263.5
2022-11-02T07:32:16.959Z,96269.6
2022-11-02T07:33:18.908Z,96271.8
2022-11-02T07:34:20.823Z,96273.8
2022-11-02T07:35:22.729Z,96274.4
2022-11-02T07:36:24.948Z,96274.4
2022-11-02T07:37:27.428Z,96277
2022-11-02T07:38:29.335Z,96271.2
2022-11-02T07:39:31.582Z,96274.6
2022-11-02T07:40:33.794Z,96273.1
2022-11-02T07:41:35.748Z,96270.4
2022-11-02T07:42:37.675Z,96268.8
2022-11-02T07:44:45.173Z,96268.3
2022-11-02T07:45:47.783Z,96267.4
2022-11-02T07:46:50.285Z,96275.9
2022-11-02T07:47:52.764Z,96276.7
2022-11-02T07:48:55.442Z,96277.9
2022-11-02T07:49:58.117Z,96274.8
2022-11-02T07:51:00.538Z,96277.1
2022-11-02T07:52:02.756Z,96275.5
2022-11-02T07:53:06.514Z,96275.3
2022-11-02T07:54:09.456Z,96278.2
2022-11-02T07:55:11.956Z,96274.3
2022-11-02T07:56:14.172Z,96275.5
2022-11-02T07:57:16.381Z,96276.5
2022-11-02T07:58:18.870Z,96278.2
2022-11-02T07:59:21.084Z,96281.9
2022-11-02T08:00:23.608Z,96277.9
2022-11-02T08:01:25.896Z,96280.5
2022-11-02T08:02:28.881Z,96280.5
2022-11-02T08:03:31.096Z,96283.4
2022-11-02T08:04:33.041Z,96280.1
2022-11-02T08:05:35.256Z,96282.5
2022-11-02T08:06:37.469Z,96277
2022-11-02T08:07:39.669Z,96276.2
2022-11-02T08:08:41.880Z,96274.8
2022-11-02T08:09:44.080Z,96274.9
2022-11-02T08:10:46.032Z,96276.7
2022-11-02T08:11:48.513Z,96277.3
2022-11-02T08:12:50.710Z,96275.7
2022-11-02T08:13:53.226Z,96277.1
2022-11-02T08:14:55.724Z,96275.8
2022-11-02T08:15:58.222Z,96276.3
2022-11-02T08:17:00.390Z,96278.7
2022-11-02T08:18:04.870Z,96281.9
2022-11-02T08:19:07.032Z,96283.2
2022-11-02T08:20:09.505Z,96284
2022-11-02T08:21:11.447Z,96283.1
2022-11-02T08:22:13.685Z,96285
2022-11-02T08:23:16.187Z,96286.7
2022-11-02T08:24:18.659Z,96281.5
2022-11-02T08:25:20.594Z,96289.2
2022-11-02T08:26:22.506Z,96292.9
2022-11-02T08:27:24.733Z,96294.9
2022-11-02T08:28:26.663Z,96292.8
2022-11-02T08:29:28.876Z,96292.3
2022-11-02T08:30:31.364Z,96293.9
2022-11-02T08:31:33.874Z,96298.9
2022-11-02T08:32:36.469Z,96294.7
2022-11-02T08:33:38.706Z,96295.1
2022-11-02T08:34:40.903Z,96294.5
2022-11-02T08:35:42.820Z,96300.1
2022-11-02T08:36:45.027Z,96297.8
2022-11-02T08:37:46.710Z,96298.4
2022-11-02T08:38:48.898Z,96294.5
2022-11-02T08:39:50.825Z,96296.1
2022-11-02T08:40:53.016Z,96294.8
2022-11-02T08:41:55.520Z,96291.7
2022-11-02T08:42:57.428Z,96291.1
2022-11-02T08:43:59.911Z,96293.9
2022-11-02T08:45:02.122Z,96294.1
2022-11-02T08:47:11.199Z,96294.5
2022-11-02T08:48:13.771Z,96292.6
2022-11-02T08:49:15.720Z,96292.9
2022-11-02T08:50:17.939Z,96292.9
2022-11-02T08:51:19.702Z,96292.5
2022-11-02T08:52:21.648Z,96295.3
2022-11-02T08:53:23.851Z,96292.7
2022-11-02T08:54:25.780Z,96296
2022-11-02T08:55:27.691Z,96293.7
2022-11-02T08:56:30.170Z,96294.4
2022-11-02T08:57:32.651Z,96295.5
2022-11-02T08:58:34.862Z,96300.5
2022-11-02T08:59:37.053Z,96293.8
2022-11-02T09:00:39.268Z,96297.1
2022-11-02T09:01:42.150Z,96292.1
2022-11-02T09:02:45.415Z,96293.2
2022-11-02T09:03:47.740Z,96297.3
2022-11-02T09:04:50.281Z,96301.5
2022-11-02T09:05:52.484Z,96306.2
2022-11-02T09:06:54.680Z,96298.4
2022-11-02T09:07:56.607Z,96304.7
2022-11-02T09:09:00.687Z,96297.3
2022-11-02T09:10:02.910Z,96298.2
2022-11-02T09:11:05.405Z,96306.3
2022-11-02T09:12:07.892Z,96297.3
2022-11-02T09:13:10.467Z,96300.9
2022-11-02T09:14:13.186Z,96299.3
2022-11-02T09:15:15.723Z,96306.9
2022-11-02T09:16:17.645Z,96304.2
2022-11-02T09:17:19.836Z,96303.2
2022-11-02T09:18:22.099Z,96303.8
2022-11-02T09:19:24.384Z,96305.8
2022-11-02T09:20:26.922Z,96307.4
2022-11-02T09:21:29.155Z,96306.9
2022-11-02T09:22:31.376Z,96310.8
2022-11-02T09:23:33.609Z,96311.6
2022-11-02T09:24:36.085Z,96311.7
2022-11-02T09:25:38.419Z,96319.6
2022-11-02T09:26:40.390Z,96317.5
2022-11-02T09:27:42.876Z,96318.9
2022-11-02T09:28:45.372Z,96318.3
2022-11-02T09:29:47.299Z,96316.2
2022-11-02T09:30:48.671Z,96320
2022-11-02T09:31:51.172Z,96317.2
2022-11-02T09:32:53.396Z,96321.2
2022-11-02T09:33:55.643Z,96317.5
2022-11-02T09:34:57.904Z,96312.9
2022-11-02T09:36:00.423Z,96318.7
2022-11-02T09:37:02.364Z,96314.3
2022-11-02T09:38:04.597Z,96313.6
2022-11-02T09:39:06.554Z,96313.7
2022-11-02T09:40:08.469Z,96315.6
2022-11-02T09:41:10.412Z,96318.8
2022-11-02T09:42:12.891Z,96319.5
2022-11-02T09:43:15.099Z,96315.2
2022-11-02T09:44:17.297Z,96316
2022-11-02T09:45:19.525Z,96313.7
2022-11-02T09:46:21.720Z,96320.9
2022-11-02T09:48:30.952Z,96319.7
2022-11-02T09:49:33.962Z,96320.6
2022-11-02T09:50:36.282Z,96319.9
2022-11-02T09:51:38.793Z,96322.1
2022-11-02T09:52:41.274Z,96320.1
2022-11-02T09:53:43.763Z,96314.7
2022-11-02T09:54:45.657Z,96316.7
2022-11-02T09:55:47.866Z,96320.9
2022-11-02T09:56:50.082Z,96318.1
2022-11-02T09:57:52.301Z,96323.8
2022-11-02T09:58:54.208Z,96331.4
2022-11-02T09:59:56.449Z,96328.2
2022-11-02T10:02:03.397Z,96330.3
2022-11-02T10:03:06.005Z,96335.2
2022-11-02T10:04:08.307Z,96334.5
2022-11-02T10:05:10.255Z,96339
2022-11-02T10:06:12.862Z,96339.9
2022-11-02T10:07:15.361Z,96344.5
2022-11-02T10:08:16.714Z,96336.7
2022-11-02T10:09:18.927Z,96342.3
2022-11-02T10:10:21.299Z,96340.3
2022-11-02T10:11:23.072Z,96339.8
2022-11-02T10:12:25.113Z,96339.5
2022-11-02T10:13:27.593Z,96340.7
2022-11-02T10:14:29.518Z,96345.3
2022-11-02T10:15:31.752Z,96340.7
2022-11-02T10:16:33.734Z,96345.1
2022-11-02T10:17:35.959Z,96343.7
2022-11-02T10:18:38.138Z,96337.5
2022-11-02T10:19:40.054Z,96340.2
2022-11-02T10:20:42.581Z,96335.9
2022-11-02T10:21:45.138Z,96338.7
2022-11-02T10:22:47.651Z,96337.7
2022-11-02T10:23:49.835Z,96339.7
2022-11-02T10:24:52.032Z,96338
2022-11-02T10:25:53.947Z,96335.4
2022-11-02T10:26:55.853Z,96336.3
2022-11-02T10:27:58.350Z,96337.5
2022-11-02T10:29:00.070Z,96335.8
2022-11-02T10:30:02.319Z,96336.2
2022-11-02T10:31:04.823Z,96332.4
2022-11-02T10:32:07.055Z,96341.9
2022-11-02T10:33:09.556Z,96334.6
2022-11-02T10:34:11.782Z,96339.8
2022-11-02T10:36:21.185Z,96335.9
2022-11-02T10:37:23.747Z,96336.2
2022-11-02T10:38:25.692Z,96335.4
2022-11-02T10:39:27.905Z,96336.9
2022-11-02T10:40:29.545Z,96336.8
2022-11-02T10:41:32.033Z,96341.4
2022-11-02T10:42:34.505Z,96336.7
2022-11-02T10:43:35.907Z,96338.1
2022-11-02T10:44:38.123Z,96344.2
2022-11-02T10:45:40.124Z,96339.7
2022-11-02T10:46:42.414Z,96340.4
2022-11-02T10:47:44.950Z,96341.2
2022-11-02T10:48:47.167Z,96337.5
2022-11-02T10:49:49.663Z,96329.6
2022-11-02T10:50:51.864Z,96336.8
2022-11-02T10:51:54.115Z,96333.2
2022-11-02T10:54:02.147Z,96333.5
2022-11-02T10:55:04.742Z,96336.5
2022-11-02T10:56:07.236Z,96331.7
2022-11-02T10:57:09.461Z,96336.2
2022-11-02T10:58:11.094Z,96331.8
2022-11-02T10:59:13.583Z,96332.1
2022-11-02T11:00:15.534Z,96326.7
2022-11-02T11:01:18.403Z,96330.3
2022-11-02T11:02:20.522Z,96333.7
2022-11-02T11:03:22.752Z,96328
2022-11-02T11:04:25.240Z,96327.9
2022-11-02T11:05:27.721Z,96331.3
2022-11-02T11:06:29.387Z,96332.6
2022-11-02T11:07:31.733Z,96334.3
2022-11-02T11:08:34.183Z,96333.2
2022-11-02T11:09:36.709Z,96331
2022-11-02T11:10:38.941Z,96331.1
2022-11-02T11:11:40.888Z,96328.8
2022-11-02T11:12:42.825Z,96327.5
2022-11-02T11:15:54.739Z,96328.1
2022-11-02T11:20:13.622Z,96332.3
2022-11-02T11:21:15.577Z,96328.2
2022-11-02T11:22:18.061Z,96330.2
2022-11-02T11:23:20.002Z,96327.5
2022-11-02T11:24:22.531Z,96326.2
2022-11-02T11:26:29.659Z,96325
2022-11-02T11:27:31.881Z,96325.3
2022-11-02T11:28:34.079Z,96331.5
2022-11-02T11:29:36.300Z,96328.6
2022-11-02T11:31:43.772Z,96327.9
2022-11-02T11:32:45.976Z,96324
2022-11-02T11:33:47.905Z,96326.3
2022-11-02T11:34:50.123Z,96330.5
2022-11-02T11:35:52.634Z,96333.5
2022-11-02T11:36:55.160Z,96335.8
2022-11-02T11:37:57.143Z,96334.3
2022-11-02T11:38:59.699Z,96331.8
2022-11-02T11:40:01.922Z,96329.5
2022-11-02T11:41:03.825Z,96334.2
2022-11-02T11:42:06.149Z,96334.9
2022-11-02T11:43:08.381Z,96331.5
2022-11-02T11:44:10.583Z,96337.7
2022-11-02T11:45:12.800Z,96333
2022-11-02T11:46:14.997Z,96332.9
2022-11-02T11:47:17.209Z,96339.3
2022-11-02T11:48:19.415Z,96333.5
2022-11-02T11:51:32.942Z,96335.3
2022-11-02T11:52:35.456Z,96331.6
2022-11-02T11:53:37.360Z,96333.6
2022-11-02T11:54:39.864Z,96333.7
2022-11-02T11:55:42.362Z,96332.4
2022-11-02T11:56:44.845Z,96332.7
2022-11-02T11:57:46.976Z,96329.9
2022-11-02T11:59:54.587Z,96329.3
2022-11-02T12:00:56.224Z,96330.3
2022-11-02T12:01:59.021Z,96330.4
2022-11-02T12:03:02.922Z,96325.7
2022-11-02T12:04:05.649Z,96326.5
2022-11-02T12:05:07.859Z,96325.3
2022-11-02T12:06:09.800Z,96324.6
2022-11-02T12:07:11.992Z,96321.9
2022-11-02T12:08:14.464Z,96321
2022-11-02T12:09:16.140Z,96321.3
2022-11-02T12:10:18.369Z,96321.8
2022-11-02T12:11:20.992Z,96322.1
2022-11-02T12:12:22.659Z,96317.7
2022-11-02T12:13:24.646Z,96321.8
2022-11-02T12:14:27.159Z,96323.9
2022-11-02T12:15:29.406Z,96321.6
2022-11-02T12:16:31.890Z,96319.8
2022-11-02T12:17:34.120Z,96325.6
2022-11-02T12:18:36.290Z,96324.6
2022-11-02T12:19:38.503Z,96322.4
2022-11-02T12:20:40.700Z,96315.4
2022-11-02T12:21:42.634Z,96316.1
2022-11-02T12:22:43.990Z,96317.5
2022-11-02T12:23:45.920Z,96313.3
2022-11-02T12:24:48.153Z,96311.8
2022-11-02T12:25:50.666Z,96310.8
2022-11-02T12:26:53.201Z,96315.1
2022-11-02T12:27:56.191Z,96309
2022-11-02T12:28:58.473Z,96312.9
2022-11-02T12:30:00.732Z,96311.3
2022-11-02T12:31:02.657Z,96312.2
2022-11-02T12:32:04.905Z,96310.6
2022-11-02T12:33:08.829Z,96313.1
2022-11-02T12:34:11.125Z,96306.6
2022-11-02T12:36:18.314Z,96301.3
2022-11-02T12:38:25.556Z,96301.1
2022-11-02T12:39:27.735Z,96298.4
2022-11-02T12:40:29.945Z,96299.6
2022-11-02T12:41:32.145Z,96298
2022-11-02T12:42:37.930Z,96300.3
2022-11-02T12:43:42.775Z,96297.6
2022-11-02T12:44:45.489Z,96298.3
2022-11-02T12:45:47.726Z,96298.3
2022-11-02T12:46:50.335Z,96298
2022-11-02T12:47:52.548Z,96297
2022-11-02T12:48:54.737Z,96289.7
2022-11-02T12:49:57.224Z,96288.2
2022-11-02T12:50:59.674Z,96286.2
2022-11-02T12:52:01.610Z,96286.2
2022-11-02T12:53:05.389Z,96286.1
2022-11-02T12:54:08.546Z,96283
2022-11-02T12:56:16.049Z,96281.9
2022-11-02T12:57:18.293Z,96280.4
2022-11-02T12:58:20.783Z,96283.2
2022-11-02T12:59:22.715Z,96284.2
2022-11-02T13:00:24.964Z,96280
2022-11-02T13:01:27.936Z,96277.8
2022-11-02T13:02:30.724Z,96276.8
2022-11-02T13:03:32.634Z,96272.9
2022-11-02T13:05:39.844Z,96272.8
2022-11-02T13:06:42.080Z,96269.9
2022-11-02T13:07:44.311Z,96275.9
2022-11-02T13:08:46.221Z,96277.4